Terminal Aerodrome Forecast
Issued by NWS

Home | Current Version | Previous Version | Graphics & Text | Print | Product List | Glossary On
Versions: 1 2 3 4 5 6 7 8 9 10 11 12 13 14 15 16 17 18 19 20 21 22 23 24 25
632
FTUS43 KBIS 181732
TAFJMS
TAF
KJMS 181732Z 1818/1918 16008KT P6SM SCT030
     FM190000 14005KT P6SM FEW250
     FM190700 13009KT P6SM SCT003 BKN010
     FM191100 13015G23KT P6SM BKN005 OVC010
     FM191400 15018G28KT P6SM BKN015
     FM191600 15020G30KT P6SM SCT025 BKN060=

USA.gov is the U.S. government's official web portal to all federal, state and local government web resources and services.